createdAt,value
2022-11-09T00:00:07.504Z,0
2022-11-09T00:03:07.680Z,0
2022-11-09T00:06:07.525Z,0
2022-11-09T00:09:14.934Z,0
2022-11-09T00:12:07.354Z,0
2022-11-09T00:15:07.504Z,0
2022-11-09T00:18:07.456Z,0
2022-11-09T00:21:07.448Z,0
2022-11-09T00:24:07.387Z,0
2022-11-09T00:27:07.484Z,0
2022-11-09T00:30:07.427Z,0
2022-11-09T00:33:07.346Z,0
2022-11-09T00:36:07.518Z,0
2022-11-09T00:39:07.365Z,0
2022-11-09T00:42:07.648Z,0
2022-11-09T00:45:07.342Z,0
2022-11-09T00:48:07.358Z,0
2022-11-09T00:51:07.469Z,0
2022-11-09T00:54:07.568Z,0
2022-11-09T00:57:07.447Z,0
2022-11-09T01:00:07.387Z,0
2022-11-09T01:03:07.453Z,0
2022-11-09T01:06:07.467Z,0
2022-11-09T01:09:07.435Z,0
2022-11-09T01:12:07.391Z,0
2022-11-09T01:15:07.474Z,0
2022-11-09T01:18:07.370Z,0
2022-11-09T01:21:07.327Z,0
2022-11-09T01:24:07.889Z,0
2022-11-09T01:27:07.523Z,0
2022-11-09T01:30:07.685Z,0
2022-11-09T01:33:07.405Z,0
2022-11-09T01:36:07.455Z,0
2022-11-09T01:39:07.385Z,0
2022-11-09T01:42:07.419Z,0
2022-11-09T01:45:07.506Z,0
2022-11-09T01:48:07.386Z,0
2022-11-09T01:51:07.481Z,0
2022-11-09T01:54:07.364Z,0
2022-11-09T01:57:07.359Z,0
2022-11-09T02:00:07.530Z,0
2022-11-09T02:03:07.513Z,0
2022-11-09T02:06:07.398Z,0
2022-11-09T02:09:07.509Z,0
2022-11-09T02:12:07.307Z,0
2022-11-09T02:15:07.334Z,0
2022-11-09T02:18:07.383Z,0
2022-11-09T02:21:07.318Z,0
2022-11-09T02:24:07.359Z,0
2022-11-09T02:27:07.450Z,0
2022-11-09T02:30:07.426Z,0
2022-11-09T02:33:07.410Z,0
2022-11-09T02:36:07.430Z,0
2022-11-09T02:39:07.427Z,0
2022-11-09T02:42:21.770Z,0
2022-11-09T02:45:07.461Z,0
2022-11-09T02:48:07.420Z,0
2022-11-09T02:51:07.411Z,0
2022-11-09T02:54:07.373Z,0
2022-11-09T02:57:07.547Z,0
2022-11-09T03:00:07.372Z,0
2022-11-09T03:03:07.437Z,0
2022-11-09T03:06:07.766Z,0
2022-11-09T03:09:07.421Z,0
2022-11-09T03:12:07.532Z,0
2022-11-09T03:15:07.514Z,0
2022-11-09T03:18:07.558Z,0
2022-11-09T03:21:07.716Z,0
2022-11-09T03:24:07.428Z,0
2022-11-09T03:27:07.311Z,0
2022-11-09T03:30:07.471Z,0
2022-11-09T03:33:07.392Z,0
2022-11-09T03:36:07.392Z,0
2022-11-09T03:39:07.343Z,0
2022-11-09T03:42:07.758Z,0
2022-11-09T03:45:07.481Z,0
2022-11-09T03:48:07.525Z,0
2022-11-09T03:51:07.348Z,0
2022-11-09T03:54:07.441Z,0
2022-11-09T03:57:07.306Z,0
2022-11-09T04:00:07.445Z,0
2022-11-09T04:03:07.428Z,0
2022-11-09T04:06:07.631Z,0
2022-11-09T04:09:07.331Z,0
2022-11-09T04:12:07.413Z,0
2022-11-09T04:15:07.378Z,0
2022-11-09T04:18:07.441Z,0
2022-11-09T04:21:07.591Z,0
2022-11-09T04:24:07.343Z,0
2022-11-09T04:27:07.476Z,0
2022-11-09T04:30:07.433Z,0
2022-11-09T04:33:07.469Z,0
2022-11-09T04:36:07.408Z,0
2022-11-09T04:39:07.364Z,0
2022-11-09T04:42:07.437Z,0
2022-11-09T04:45:07.393Z,0
2022-11-09T04:48:07.373Z,0
2022-11-09T04:51:07.350Z,0
2022-11-09T04:54:07.396Z,0
2022-11-09T04:57:07.373Z,0
2022-11-09T05:00:07.540Z,0
2022-11-09T05:03:07.310Z,0
2022-11-09T05:06:07.495Z,0
2022-11-09T05:09:07.333Z,0
2022-11-09T05:12:07.433Z,0
2022-11-09T05:15:07.316Z,0
2022-11-09T05:18:07.792Z,0
2022-11-09T05:21:07.283Z,0
2022-11-09T05:24:07.883Z,0
2022-11-09T05:27:07.399Z,0
2022-11-09T05:30:07.404Z,0
2022-11-09T05:33:07.386Z,0
2022-11-09T05:36:07.410Z,0
2022-11-09T05:39:07.354Z,0
2022-11-09T05:42:07.431Z,0
2022-11-09T05:45:49.007Z,0
2022-11-09T05:48:07.396Z,0
2022-11-09T05:51:07.372Z,0
2022-11-09T05:54:07.500Z,0
2022-11-09T05:57:07.369Z,3
2022-11-09T06:00:13.440Z,3
2022-11-09T06:03:07.391Z,7
2022-11-09T06:06:15.216Z,10
2022-11-09T06:09:07.588Z,20
2022-11-09T06:12:07.441Z,30
2022-11-09T06:15:07.386Z,47
2022-11-09T06:18:07.577Z,63
2022-11-09T06:21:07.431Z,80
2022-11-09T06:24:07.427Z,107
2022-11-09T06:27:07.357Z,150
2022-11-09T06:30:07.903Z,210
2022-11-09T06:33:07.394Z,270
2022-11-09T06:36:07.523Z,313
2022-11-09T06:39:07.455Z,373
2022-11-09T06:42:07.747Z,420
2022-11-09T06:45:07.379Z,430
2022-11-09T06:48:07.685Z,480
2022-11-09T06:51:07.645Z,547
2022-11-09T06:54:07.495Z,643
2022-11-09T07:00:07.527Z,800
2022-11-09T07:03:07.539Z,1020
2022-11-09T07:06:07.439Z,1417
2022-11-09T07:09:07.473Z,1923
2022-11-09T07:12:07.393Z,2317
2022-11-09T07:15:11.707Z,2320
2022-11-09T07:18:07.480Z,2133
2022-11-09T07:21:14.391Z,2133
2022-11-09T07:24:07.471Z,2847
2022-11-09T07:27:07.383Z,3757
2022-11-09T07:30:07.627Z,4317
2022-11-09T07:33:19.374Z,4207
2022-11-09T07:36:07.479Z,3583
2022-11-09T07:39:07.508Z,3503
2022-11-09T07:42:07.499Z,3227
2022-11-09T07:45:07.420Z,3103
2022-11-09T07:48:07.566Z,3117
2022-11-09T07:57:07.401Z,3393
2022-11-09T08:03:07.535Z,3630
2022-11-09T08:06:07.415Z,4223
2022-11-09T08:09:07.485Z,4857
2022-11-09T08:12:07.469Z,5857
2022-11-09T08:15:07.420Z,6840
2022-11-09T08:18:07.406Z,8907
2022-11-09T08:21:07.411Z,9940
2022-11-09T08:24:07.450Z,10360
2022-11-09T08:27:07.447Z,10437
2022-11-09T08:30:07.488Z,9960
2022-11-09T08:33:07.393Z,8590
2022-11-09T08:36:07.476Z,7437
2022-11-09T08:39:07.415Z,8117
2022-11-09T08:42:08.135Z,6783
2022-11-09T08:45:07.527Z,7027
2022-11-09T08:48:07.433Z,7027
2022-11-09T08:51:07.554Z,7563
2022-11-09T08:54:07.425Z,7260
2022-11-09T08:57:07.408Z,9213
2022-11-09T09:00:07.614Z,11050
2022-11-09T09:03:07.476Z,11153
2022-11-09T09:06:07.435Z,11023
2022-11-09T09:09:07.457Z,10543
2022-11-09T09:12:07.414Z,9780
2022-11-09T09:15:07.439Z,9770
2022-11-09T09:18:07.392Z,8890
2022-11-09T09:21:07.389Z,7460
2022-11-09T09:24:07.349Z,6033
2022-11-09T09:27:07.431Z,5760
2022-11-09T09:30:07.516Z,7687
2022-11-09T09:33:07.392Z,8780
2022-11-09T09:36:07.401Z,9267
2022-11-09T09:39:07.440Z,9873
2022-11-09T09:42:07.540Z,8527
2022-11-09T09:45:07.500Z,8600
2022-11-09T09:48:07.348Z,8867
2022-11-09T09:51:07.376Z,10287
2022-11-09T09:54:07.489Z,10657
2022-11-09T09:57:07.407Z,11897
2022-11-09T10:00:07.579Z,23540
2022-11-09T10:03:07.341Z,15737
2022-11-09T10:06:07.422Z,10543
2022-11-09T10:09:07.421Z,9483
2022-11-09T10:12:08.315Z,12207
2022-11-09T10:15:07.470Z,13320
2022-11-09T10:18:07.371Z,11277
2022-11-09T10:21:07.332Z,10027
2022-11-09T10:24:07.382Z,12200
2022-11-09T10:27:07.346Z,25750
2022-11-09T10:30:07.447Z,16347
2022-11-09T10:33:07.435Z,13610
2022-11-09T10:36:14.958Z,11063
2022-11-09T10:39:07.335Z,13970
2022-11-09T10:42:07.456Z,25867
2022-11-09T10:45:07.377Z,9610
2022-11-09T10:48:07.466Z,10030
2022-11-09T10:51:07.522Z,12403
2022-11-09T10:54:07.377Z,22613
2022-11-09T10:57:13.680Z,8947
2022-11-09T11:00:07.466Z,22553
2022-11-09T11:03:07.538Z,31347
2022-11-09T11:06:07.427Z,27580
2022-11-09T11:09:07.511Z,11040
2022-11-09T11:12:07.430Z,28153
2022-11-09T11:15:07.348Z,23257
2022-11-09T11:18:07.384Z,15427
2022-11-09T11:21:07.469Z,10623
2022-11-09T11:24:07.455Z,12623
2022-11-09T11:27:13.742Z,14637
2022-11-09T11:30:07.517Z,20083
2022-11-09T11:33:07.484Z,24677
2022-11-09T11:36:07.396Z,44847
2022-11-09T11:39:07.372Z,43250
2022-11-09T11:42:07.558Z,38263
2022-11-09T11:45:46.860Z,31037
2022-11-09T11:48:07.459Z,28203
2022-11-09T11:51:07.415Z,25000
2022-11-09T11:54:07.412Z,24537
2022-11-09T11:57:07.382Z,22113
2022-11-09T12:00:07.582Z,36463
2022-11-09T12:03:07.872Z,37650
2022-11-09T12:06:07.373Z,31633
2022-11-09T12:09:07.523Z,14047
2022-11-09T12:12:07.416Z,31300
2022-11-09T12:15:07.545Z,26023
2022-11-09T12:18:07.463Z,10977
2022-11-09T12:21:07.351Z,12030
2022-11-09T12:24:07.404Z,9677
2022-11-09T12:27:38.551Z,7947
2022-11-09T12:30:07.439Z,9813
2022-11-09T12:33:07.413Z,10573
2022-11-09T12:36:07.788Z,11623
2022-11-09T12:39:07.691Z,10643
2022-11-09T12:42:07.424Z,8317
2022-11-09T12:45:07.469Z,8727
2022-11-09T12:48:07.522Z,6787
2022-11-09T12:51:07.464Z,5383
2022-11-09T12:54:07.315Z,6240
2022-11-09T12:57:07.428Z,6560
2022-11-09T13:00:07.838Z,10137
2022-11-09T13:03:07.414Z,7973
2022-11-09T13:06:09.578Z,5027
2022-11-09T13:09:07.465Z,7423
2022-11-09T13:12:10.110Z,7723
2022-11-09T13:15:07.385Z,9053
2022-11-09T13:18:07.580Z,7727
2022-11-09T13:21:07.413Z,10363
2022-11-09T13:24:24.427Z,11333
2022-11-09T13:27:07.572Z,12770
2022-11-09T13:30:07.500Z,9520
2022-11-09T13:33:07.421Z,8953
2022-11-09T13:36:07.453Z,8203
2022-11-09T13:39:07.439Z,8123
2022-11-09T13:42:07.453Z,7850
2022-11-09T13:45:07.373Z,8140
2022-11-09T13:48:07.532Z,7503
2022-11-09T13:51:07.467Z,6203
2022-11-09T13:54:07.357Z,5480
2022-11-09T13:57:07.434Z,4850
2022-11-09T14:00:07.538Z,4320
2022-11-09T14:03:07.427Z,4607
2022-11-09T14:06:07.431Z,4213
2022-11-09T14:09:07.411Z,3903
2022-11-09T14:12:07.453Z,3627
2022-11-09T14:15:07.412Z,4393
2022-11-09T14:18:07.499Z,4160
2022-11-09T14:21:07.491Z,3343
2022-11-09T14:24:07.454Z,2537
2022-11-09T14:27:07.376Z,3510
2022-11-09T14:30:07.409Z,3657
2022-11-09T14:33:07.377Z,3403
2022-11-09T14:36:07.366Z,2940
2022-11-09T14:39:07.488Z,2253
2022-11-09T14:42:07.367Z,1810
2022-11-09T14:45:07.420Z,1860
2022-11-09T14:48:07.403Z,1647
2022-11-09T14:51:07.474Z,360
2022-11-09T14:54:07.409Z,260
2022-11-09T14:57:07.474Z,377
2022-11-09T15:00:07.429Z,640
2022-11-09T15:03:07.412Z,960
2022-11-09T15:06:07.436Z,1277
2022-11-09T15:09:07.372Z,1173
2022-11-09T15:12:07.473Z,1047
2022-11-09T15:15:07.508Z,900
2022-11-09T15:18:07.481Z,733
2022-11-09T15:21:07.585Z,613
2022-11-09T15:24:07.638Z,517
2022-11-09T15:27:07.389Z,407
2022-11-09T15:30:07.529Z,323
2022-11-09T15:33:07.445Z,247
2022-11-09T15:36:07.414Z,197
2022-11-09T15:39:07.280Z,153
2022-11-09T15:42:07.340Z,123
2022-11-09T15:45:07.810Z,100
2022-11-09T15:48:07.363Z,87
2022-11-09T15:51:07.352Z,50
2022-11-09T15:54:07.544Z,30
2022-11-09T15:57:07.368Z,20
2022-11-09T16:00:19.619Z,10
2022-11-09T16:03:07.388Z,7
2022-11-09T16:06:07.406Z,3
2022-11-09T16:09:07.425Z,3
2022-11-09T16:12:07.439Z,3
2022-11-09T16:15:07.392Z,0
2022-11-09T16:18:07.462Z,0
2022-11-09T16:21:07.340Z,0
2022-11-09T16:24:07.371Z,0
2022-11-09T16:27:43.248Z,0
2022-11-09T16:30:07.399Z,0
2022-11-09T16:33:07.446Z,0
2022-11-09T16:36:07.368Z,0
2022-11-09T16:39:07.357Z,0
2022-11-09T16:42:07.397Z,0
2022-11-09T16:45:07.452Z,0
2022-11-09T16:48:07.363Z,0
2022-11-09T16:51:07.449Z,0
2022-11-09T16:54:07.366Z,0
2022-11-09T16:57:07.426Z,0
2022-11-09T17:00:07.483Z,0
2022-11-09T17:03:07.615Z,0
2022-11-09T17:06:07.371Z,0
2022-11-09T17:09:07.389Z,0
2022-11-09T17:12:07.416Z,0
2022-11-09T17:15:07.367Z,0
2022-11-09T17:18:07.426Z,0
2022-11-09T17:21:07.454Z,0
2022-11-09T17:24:07.445Z,0
2022-11-09T17:27:07.278Z,0
2022-11-09T17:30:07.426Z,0
2022-11-09T17:33:07.383Z,0
2022-11-09T17:36:07.400Z,0
2022-11-09T17:39:07.329Z,0
2022-11-09T17:42:07.337Z,0
2022-11-09T17:45:07.368Z,0
2022-11-09T17:48:07.434Z,0
2022-11-09T17:51:07.377Z,0
2022-11-09T17:54:07.417Z,0
2022-11-09T17:57:07.325Z,0
2022-11-09T18:00:07.364Z,0
2022-11-09T18:03:07.386Z,0
2022-11-09T18:06:07.378Z,0
2022-11-09T18:09:48.104Z,0
2022-11-09T18:12:07.384Z,0
2022-11-09T18:15:07.318Z,0
2022-11-09T18:18:07.714Z,0
2022-11-09T18:21:07.364Z,0
2022-11-09T18:24:07.456Z,0
2022-11-09T18:27:07.398Z,0
2022-11-09T18:30:07.538Z,0
2022-11-09T18:33:07.373Z,0
2022-11-09T18:36:07.413Z,0
2022-11-09T18:39:07.460Z,0
2022-11-09T18:42:07.355Z,0
2022-11-09T18:45:07.351Z,0
2022-11-09T18:48:07.385Z,0
2022-11-09T18:51:07.373Z,0
2022-11-09T18:54:07.418Z,0
2022-11-09T18:57:07.366Z,0
2022-11-09T19:00:07.459Z,0
2022-11-09T19:03:07.645Z,0
2022-11-09T19:06:07.536Z,0
2022-11-09T19:09:07.335Z,0
2022-11-09T19:12:07.338Z,0
2022-11-09T19:15:07.440Z,0
2022-11-09T19:18:07.381Z,0
2022-11-09T19:21:07.354Z,0
2022-11-09T19:24:07.402Z,0
2022-11-09T19:27:07.467Z,0
2022-11-09T19:30:15.944Z,0
2022-11-09T19:33:07.336Z,0
2022-11-09T19:36:37.589Z,0
2022-11-09T19:39:07.458Z,0
2022-11-09T19:42:07.357Z,0
2022-11-09T19:45:07.386Z,0
2022-11-09T19:48:07.395Z,0
2022-11-09T19:51:07.330Z,0
2022-11-09T19:54:07.403Z,0
2022-11-09T19:57:07.335Z,0
2022-11-09T20:00:07.433Z,0
2022-11-09T20:03:07.361Z,0
2022-11-09T20:06:07.572Z,0
2022-11-09T20:09:07.427Z,0
2022-11-09T20:12:07.335Z,0
2022-11-09T20:15:07.794Z,0
2022-11-09T20:18:07.675Z,0
2022-11-09T20:21:07.551Z,0
2022-11-09T20:24:07.365Z,0
2022-11-09T20:27:07.335Z,0
2022-11-09T20:30:07.357Z,0
2022-11-09T20:33:07.410Z,0
2022-11-09T20:36:07.434Z,0
2022-11-09T20:39:07.899Z,0
2022-11-09T20:42:07.339Z,0
2022-11-09T20:45:07.331Z,0
2022-11-09T20:48:59.314Z,0
2022-11-09T20:51:07.345Z,0
2022-11-09T20:54:14.963Z,0
2022-11-09T20:57:07.296Z,0
2022-11-09T21:00:07.584Z,0
2022-11-09T21:03:07.271Z,0
2022-11-09T21:06:07.346Z,0
2022-11-09T21:09:07.364Z,0
2022-11-09T21:12:07.303Z,0
2022-11-09T21:15:07.333Z,0
2022-11-09T21:18:07.358Z,0
2022-11-09T21:21:07.595Z,0
2022-11-09T21:24:07.325Z,0
2022-11-09T21:27:07.402Z,0
2022-11-09T21:30:07.427Z,0
2022-11-09T21:33:07.396Z,0
2022-11-09T21:36:07.363Z,0
2022-11-09T21:39:07.364Z,0
2022-11-09T21:42:07.334Z,0
2022-11-09T21:45:07.669Z,0
2022-11-09T21:48:07.365Z,0
2022-11-09T21:51:07.422Z,0
2022-11-09T21:54:07.445Z,0
2022-11-09T21:57:07.319Z,0
2022-11-09T22:00:07.453Z,0
2022-11-09T22:03:07.388Z,0
2022-11-09T22:06:07.362Z,0
2022-11-09T22:09:07.516Z,0
2022-11-09T22:12:07.383Z,0
2022-11-09T22:15:07.321Z,0
2022-11-09T22:18:07.411Z,0
2022-11-09T22:21:07.407Z,0
2022-11-09T22:24:07.389Z,0
2022-11-09T22:27:07.336Z,0
2022-11-09T22:30:07.720Z,0
2022-11-09T22:33:07.386Z,0
2022-11-09T22:36:07.408Z,0
2022-11-09T22:39:07.329Z,0
2022-11-09T22:42:07.354Z,0
2022-11-09T22:45:07.393Z,0
2022-11-09T22:48:07.592Z,0
2022-11-09T22:51:07.304Z,0
2022-11-09T22:54:07.346Z,0
2022-11-09T22:57:07.313Z,0
2022-11-09T23:00:07.800Z,0
2022-11-09T23:03:07.319Z,0
2022-11-09T23:06:07.361Z,0
2022-11-09T23:09:07.342Z,0
2022-11-09T23:12:07.467Z,0
2022-11-09T23:15:07.581Z,0
2022-11-09T23:18:07.371Z,0
2022-11-09T23:21:07.380Z,0
2022-11-09T23:24:07.324Z,0
2022-11-09T23:27:07.358Z,0
2022-11-09T23:30:07.406Z,0
2022-11-09T23:33:07.380Z,0
2022-11-09T23:36:07.673Z,0
2022-11-09T23:39:07.316Z,0
2022-11-09T23:42:07.377Z,0
2022-11-09T23:45:07.363Z,0
2022-11-09T23:48:07.373Z,0
2022-11-09T23:51:07.344Z,0
2022-11-09T23:54:07.331Z,0
2022-11-09T23:57:07.314Z,0
